Time;durP1;ratioP1;P1;durP2;ratioP2;P2;SDS_P1;SDS_P2;PMS_P1;PMS_P2;Temp;Humidity;BMP_temperature;BMP_pressure;BME280_temperature;BME280_humidity;BME280_pressure;Samples;Min_cycle;Max_cycle;Signal;HPM_P1;HPM_P2
2022/03/04 00:01:17;;;;;;;5.50;4.03;;;22.50;27.40;;;;;;5110979;28;20392;-70
2022/03/04 00:03:43;;;;;;;6.35;3.90;;;22.50;27.50;;;;;;5111115;28;21219;-69
2022/03/04 00:06:09;;;;;;;4.87;3.80;;;22.50;27.50;;;;;;5111432;28;20770;-69
2022/03/04 00:08:35;;;;;;;6.22;3.92;;;22.50;27.50;;;;;;5111218;27;20377;-69
2022/03/04 00:11:02;;;;;;;4.13;3.72;;;22.50;27.50;;;;;;5110432;28;20391;-69
2022/03/04 00:13:30;;;;;;;6.65;3.70;;;22.60;27.70;;;;;;5111141;28;20388;-69
2022/03/04 00:15:56;;;;;;;5.10;4.10;;;22.50;27.60;;;;;;5111114;28;20912;-72
2022/03/04 00:18:22;;;;;;;6.63;3.92;;;22.50;27.70;;;;;;5111964;28;20380;-71
2022/03/04 00:20:48;;;;;;;4.47;3.75;;;22.60;27.60;;;;;;5111615;28;20388;-70
2022/03/04 00:23:14;;;;;;;7.43;4.03;;;22.60;27.60;;;;;;5110143;28;20387;-70
2022/03/04 00:25:40;;;;;;;5.47;3.92;;;22.60;27.70;;;;;;5111730;28;20916;-71
2022/03/04 00:28:06;;;;;;;4.70;3.35;;;22.60;27.60;;;;;;5112246;28;20377;-70
2022/03/04 00:30:32;;;;;;;4.68;3.90;;;22.60;27.60;;;;;;5112272;28;20396;-70
2022/03/04 00:32:58;;;;;;;4.40;3.80;;;22.60;27.60;;;;;;5111379;28;20866;-70
2022/03/04 00:35:25;;;;;;;4.45;3.80;;;22.60;27.60;;;;;;5112042;28;20392;-71
2022/03/04 00:37:51;;;;;;;5.15;3.90;;;22.60;27.60;;;;;;5110492;28;20392;-71
2022/03/04 00:40:17;;;;;;;4.57;3.83;;;22.60;27.50;;;;;;5111815;28;20393;-71
2022/03/04 00:42:42;;;;;;;5.17;4.13;;;22.60;27.20;;;;;;5111641;28;21007;-71
2022/03/04 00:45:09;;;;;;;5.65;3.80;;;22.60;27.10;;;;;;5111342;28;20404;-70
2022/03/04 00:47:35;;;;;;;4.88;3.92;;;22.60;26.90;;;;;;5111351;28;20396;-70
2022/03/04 00:50:01;;;;;;;4.80;3.90;;;22.50;26.90;;;;;;5111579;28;20399;-71
2022/03/04 00:52:28;;;;;;;5.90;4.13;;;22.50;26.90;;;;;;5111635;28;20395;-71
2022/03/04 00:54:53;;;;;;;6.75;4.18;;;22.50;26.90;;;;;;5111009;28;20461;-71
2022/03/04 00:57:19;;;;;;;4.85;3.90;;;22.50;26.80;;;;;;5111724;28;20427;-71
2022/03/04 00:59:45;;;;;;;5.00;3.90;;;22.50;26.90;;;;;;5111647;28;20377;-70
2022/03/04 01:02:11;;;;;;;4.77;3.90;;;22.40;26.80;;;;;;5111637;28;20892;-70
2022/03/04 01:04:37;;;;;;;4.97;3.92;;;22.40;26.80;;;;;;5111625;28;20392;-71
2022/03/04 01:07:03;;;;;;;4.47;4.00;;;22.40;26.70;;;;;;5111024;28;20434;-71
2022/03/04 01:09:28;;;;;;;5.72;4.20;;;22.40;26.70;;;;;;5111134;28;20962;-71
2022/03/04 01:11:54;;;;;;;5.22;4.03;;;22.40;26.70;;;;;;5110143;28;20404;-70
2022/03/04 01:14:20;;;;;;;4.50;4.00;;;22.40;26.70;;;;;;5111541;28;20772;-70
2022/03/04 01:16:46;;;;;;;4.80;4.00;;;22.30;26.60;;;;;;5110975;28;20389;-71
2022/03/04 01:19:11;;;;;;;4.38;3.90;;;22.40;26.70;;;;;;5111531;28;20886;-70
2022/03/04 01:21:38;;;;;;;4.55;3.85;;;22.40;26.70;;;;;;5111472;28;20470;-71
2022/03/04 01:24:04;;;;;;;5.05;4.03;;;22.30;26.70;;;;;;5110235;28;20424;-71
2022/03/04 01:26:30;;;;;;;5.07;4.18;;;22.30;26.50;;;;;;5111352;28;20420;-70
2022/03/04 01:28:55;;;;;;;5.30;3.90;;;22.30;26.50;;;;;;5109604;28;20384;-71
2022/03/04 01:31:21;;;;;;;5.23;4.17;;;22.30;26.60;;;;;;5111412;28;20384;-71
2022/03/04 01:33:47;;;;;;;5.05;3.83;;;22.30;26.50;;;;;;5111284;28;20380;-70
2022/03/04 01:36:12;;;;;;;4.20;3.80;;;22.30;26.50;;;;;;5111332;28;20384;-70
2022/03/04 01:38:38;;;;;;;5.80;3.90;;;22.30;26.60;;;;;;5110081;28;20908;-70
2022/03/04 01:41:05;;;;;;;4.60;3.93;;;22.20;26.50;;;;;;5110804;28;20384;-70
2022/03/04 01:43:30;;;;;;;5.10;3.80;;;22.20;26.60;;;;;;5111329;28;20383;-71
2022/03/04 01:45:56;;;;;;;5.20;4.20;;;22.20;26.50;;;;;;5113013;28;20424;-70
2022/03/04 01:48:22;;;;;;;4.75;3.88;;;22.20;26.60;;;;;;5114937;28;20878;-70
2022/03/04 01:50:49;;;;;;;4.80;3.63;;;22.20;26.60;;;;;;5114334;28;20491;-70
2022/03/04 01:53:16;;;;;;;4.70;4.00;;;22.20;26.70;;;;;;5114735;28;20445;-70
2022/03/04 01:55:41;;;;;;;4.75;4.03;;;22.20;26.60;;;;;;5114526;28;20385;-70
2022/03/04 01:58:07;;;;;;;4.70;4.20;;;22.20;26.60;;;;;;5114788;28;20895;-70
2022/03/04 02:00:33;;;;;;;5.50;4.23;;;22.20;26.50;;;;;;5114769;28;20468;-70
2022/03/04 02:03:00;;;;;;;5.05;4.05;;;22.20;26.50;;;;;;5114226;28;20459;-70
2022/03/04 02:05:26;;;;;;;4.53;3.80;;;22.10;26.50;;;;;;5114564;28;20447;-70
2022/03/04 02:07:52;;;;;;;5.70;4.53;;;22.10;26.50;;;;;;5114508;28;20384;-70
2022/03/04 02:10:18;;;;;;;4.70;4.20;;;22.10;26.40;;;;;;5114411;28;20385;-70
2022/03/04 02:12:43;;;;;;;6.03;4.55;;;22.10;26.40;;;;;;5114188;27;20368;-70
2022/03/04 02:15:09;;;;;;;5.50;4.70;;;22.10;26.40;;;;;;5114178;28;20392;-70
2022/03/04 02:17:35;;;;;;;5.97;5.00;;;22.10;26.40;;;;;;5114486;28;20391;-70
2022/03/04 02:20:03;;;;;;;5.90;4.75;;;22.10;26.30;;;;;;5114347;28;20389;-70
2022/03/04 02:22:29;;;;;;;7.00;4.88;;;22.10;26.40;;;;;;5114412;28;20407;-70
2022/03/04 02:24:55;;;;;;;5.20;4.65;;;22.10;26.40;;;;;;5113220;28;20391;-70
2022/03/04 02:27:21;;;;;;;5.20;4.60;;;22.10;26.30;;;;;;5114003;28;20393;-70
2022/03/04 02:29:47;;;;;;;5.65;4.90;;;22.10;26.50;;;;;;5114146;28;20746;-70
2022/03/04 02:32:12;;;;;;;5.63;4.70;;;22.10;26.90;;;;;;5114121;28;20442;-70
2022/03/04 02:34:38;;;;;;;5.60;4.50;;;22.10;26.50;;;;;;5112874;28;20471;-70
2022/03/04 02:37:04;;;;;;;6.40;4.83;;;22.00;26.40;;;;;;5113517;28;20433;-70
2022/03/04 02:39:30;;;;;;;6.28;4.85;;;22.00;26.50;;;;;;5113606;28;20376;-70
2022/03/04 02:41:56;;;;;;;5.55;4.40;;;22.00;26.40;;;;;;5113531;28;20461;-70
2022/03/04 02:44:22;;;;;;;5.95;4.70;;;22.00;26.40;;;;;;5113840;28;20775;-70
2022/03/04 02:46:47;;;;;;;5.87;4.67;;;22.00;26.40;;;;;;5113270;28;20416;-70
2022/03/04 02:49:15;;;;;;;5.30;4.43;;;22.00;26.40;;;;;;5113345;28;20408;-70
2022/03/04 02:51:41;;;;;;;5.40;4.40;;;22.00;26.40;;;;;;5113698;28;20465;-70
2022/03/04 02:54:06;;;;;;;5.53;4.60;;;22.00;26.40;;;;;;5113381;28;20385;-70
2022/03/04 02:56:32;;;;;;;5.90;4.87;;;21.90;26.30;;;;;;5113043;28;20388;-70
2022/03/04 02:58:58;;;;;;;5.78;4.72;;;21.90;26.30;;;;;;5113110;28;20829;-70
2022/03/04 03:01:25;;;;;;;6.40;5.00;;;21.90;26.30;;;;;;5113444;28;20814;-70
2022/03/04 03:03:51;;;;;;;5.53;4.67;;;21.90;26.30;;;;;;5112240;28;20479;-70
2022/03/04 03:06:17;;;;;;;5.57;4.53;;;21.90;26.80;;;;;;5113378;28;20495;-71
2022/03/04 03:08:42;;;;;;;5.35;4.38;;;21.90;26.30;;;;;;5111625;28;20392;-70
2022/03/04 03:11:08;;;;;;;5.53;4.63;;;21.90;26.30;;;;;;5112751;28;20842;-70
2022/03/04 03:13:34;;;;;;;5.85;4.65;;;21.90;26.40;;;;;;5113370;28;20471;-70
2022/03/04 03:16:00;;;;;;;5.60;4.43;;;21.90;26.40;;;;;;5111880;28;20487;-70
2022/03/04 03:18:26;;;;;;;5.13;4.60;;;21.90;26.40;;;;;;5113192;28;20384;-70
2022/03/04 03:20:51;;;;;;;4.68;4.03;;;21.90;26.40;;;;;;5111256;28;20404;-70
2022/03/04 03:23:18;;;;;;;5.40;4.40;;;21.90;26.40;;;;;;5113112;28;20381;-70
2022/03/04 03:25:43;;;;;;;5.00;4.50;;;21.90;26.40;;;;;;5112389;28;20519;-70
2022/03/04 03:28:09;;;;;;;5.45;4.50;;;21.90;26.40;;;;;;5111102;28;20491;-70
2022/03/04 03:30:35;;;;;;;5.73;4.40;;;21.90;26.40;;;;;;5112939;28;20392;-70
2022/03/04 03:33:00;;;;;;;4.93;4.40;;;21.80;26.30;;;;;;5111071;28;20388;-70
2022/03/04 03:35:27;;;;;;;5.50;4.40;;;21.80;26.30;;;;;;5112876;28;20434;-70
2022/03/04 03:37:53;;;;;;;5.88;4.40;;;21.80;26.30;;;;;;5112717;28;20373;-70
2022/03/04 03:40:18;;;;;;;5.07;4.37;;;21.80;26.30;;;;;;5112385;28;20938;-70
2022/03/04 03:42:44;;;;;;;5.55;4.50;;;21.80;26.20;;;;;;5112433;28;20467;-70
2022/03/04 03:45:11;;;;;;;5.30;4.43;;;21.80;26.30;;;;;;5110923;28;20408;-70
2022/03/04 03:47:38;;;;;;;5.40;4.40;;;21.80;26.30;;;;;;5112430;28;20426;-70
2022/03/04 03:50:06;;;;;;;5.18;4.50;;;21.80;26.30;;;;;;5112612;28;20377;-70
2022/03/04 03:52:31;;;;;;;5.10;4.15;;;21.80;26.40;;;;;;5111137;28;20398;-71
2022/03/04 03:54:57;;;;;;;4.75;4.22;;;21.80;26.30;;;;;;5110323;28;20388;-70
2022/03/04 03:57:23;;;;;;;6.03;4.25;;;21.70;26.30;;;;;;5111953;28;20870;-70
2022/03/04 03:59:48;;;;;;;4.90;4.13;;;21.70;26.40;;;;;;5112188;28;20893;-70
2022/03/04 04:02:14;;;;;;;4.85;4.40;;;21.70;26.40;;;;;;5112327;28;20389;-71
2022/03/04 04:04:41;;;;;;;5.13;4.10;;;21.70;26.40;;;;;;5112390;28;20749;-71
2022/03/04 04:07:09;;;;;;;6.10;4.40;;;21.70;26.70;;;;;;5111694;28;20888;-70
2022/03/04 04:09:35;;;;;;;7.18;4.32;;;21.70;26.80;;;;;;5111568;28;20959;-70
2022/03/04 04:12:00;;;;;;;6.07;3.93;;;21.70;26.30;;;;;;5112013;28;20474;-70
2022/03/04 04:14:29;;;;;;;5.07;3.75;;;21.70;27.00;;;;;;5112180;28;20388;-70
2022/03/04 04:16:55;;;;;;;4.75;3.75;;;21.80;27.50;;;;;;5111809;28;20384;-70
2022/03/04 04:19:22;;;;;;;4.85;4.00;;;21.80;27.60;;;;;;5112147;28;20380;-70
2022/03/04 04:21:48;;;;;;;7.82;4.25;;;21.80;27.90;;;;;;5112043;28;20381;-70
2022/03/04 04:24:14;;;;;;;6.00;3.88;;;21.80;28.10;;;;;;5111975;28;20958;-70
2022/03/04 04:26:40;;;;;;;8.60;4.25;;;21.80;27.70;;;;;;5111916;28;20447;-71
2022/03/04 04:29:05;;;;;;;5.37;4.10;;;21.90;28.20;;;;;;5111477;28;20885;-70
2022/03/04 04:31:32;;;;;;;5.68;4.30;;;21.90;28.70;;;;;;5110616;28;20454;-71
2022/03/04 04:33:59;;;;;;;6.97;4.40;;;21.90;28.50;;;;;;5111877;28;20753;-70
2022/03/04 04:36:26;;;;;;;7.10;4.38;;;21.90;28.30;;;;;;5111931;28;20392;-71
2022/03/04 04:38:52;;;;;;;5.85;4.10;;;22.00;27.70;;;;;;5111668;28;20381;-70
2022/03/04 04:41:18;;;;;;;9.13;3.97;;;22.00;28.00;;;;;;5110823;28;20403;-70
2022/03/04 04:43:43;;;;;;;7.47;4.30;;;21.90;28.00;;;;;;5111986;28;20412;-70
2022/03/04 04:46:09;;;;;;;7.80;4.03;;;22.00;28.10;;;;;;5109967;28;20450;-70
2022/03/04 04:48:35;;;;;;;5.57;4.10;;;22.00;28.00;;;;;;5111148;28;20882;-70
2022/03/04 04:51:01;;;;;;;5.90;3.92;;;22.00;28.10;;;;;;5110899;28;20392;-71
2022/03/04 04:53:27;;;;;;;5.80;4.03;;;22.00;28.00;;;;;;5111448;28;20377;-71
2022/03/04 04:55:53;;;;;;;6.15;4.00;;;21.90;27.60;;;;;;5111477;28;20868;-71
2022/03/04 04:58:19;;;;;;;5.00;4.03;;;21.80;27.60;;;;;;5111200;28;20390;-71
2022/03/04 05:00:45;;;;;;;5.93;4.00;;;21.80;27.70;;;;;;5110686;28;20766;-70
2022/03/04 05:03:11;;;;;;;5.15;3.88;;;21.80;27.60;;;;;;5110784;28;20809;-70
2022/03/04 05:05:37;;;;;;;4.93;3.80;;;21.80;27.20;;;;;;5111592;28;20458;-71
2022/03/04 05:08:03;;;;;;;5.10;4.13;;;21.80;27.00;;;;;;5111452;28;20873;-70
2022/03/04 05:10:29;;;;;;;4.80;3.60;;;21.80;27.00;;;;;;5111633;28;20391;-71
2022/03/04 05:12:55;;;;;;;5.63;4.10;;;21.80;27.00;;;;;;5111234;28;20384;-71
2022/03/04 05:15:20;;;;;;;5.80;4.00;;;21.80;27.10;;;;;;5111290;28;20383;-70
2022/03/04 05:17:50;;;;;;;8.10;4.03;;;21.80;27.10;;;;;;5111462;28;20738;-71
2022/03/04 05:20:19;;;;;;;6.88;3.80;;;21.80;27.10;;;;;;5128483;27;20788;-71
2022/03/04 05:22:45;;;;;;;7.43;4.22;;;21.80;27.00;;;;;;5115369;28;20394;-70
2022/03/04 05:25:13;;;;;;;6.35;3.70;;;21.80;26.90;;;;;;5114554;28;20488;-70
2022/03/04 05:27:39;;;;;;;5.22;4.07;;;21.80;27.00;;;;;;5113858;28;20394;-70
2022/03/04 05:30:05;;;;;;;4.95;3.92;;;21.80;26.80;;;;;;5114085;28;20465;-70
2022/03/04 05:32:30;;;;;;;6.53;3.83;;;21.80;26.90;;;;;;5111531;28;20410;-71
2022/03/04 05:34:56;;;;;;;5.90;3.60;;;21.80;27.10;;;;;;5115062;28;20475;-71
2022/03/04 05:37:22;;;;;;;8.70;4.33;;;21.80;27.20;;;;;;5114819;28;20486;-70
2022/03/04 05:39:48;;;;;;;6.93;3.95;;;21.70;27.30;;;;;;5114930;28;20434;-71
2022/03/04 05:42:14;;;;;;;8.33;4.30;;;21.60;28.00;;;;;;5115147;28;20479;-70
2022/03/04 05:44:39;;;;;;;5.38;3.95;;;21.70;28.00;;;;;;5114943;28;20377;-71
2022/03/04 05:47:05;;;;;;;7.57;4.00;;;21.70;27.40;;;;;;5114350;28;20420;-71
2022/03/04 05:49:31;;;;;;;6.85;4.03;;;21.70;27.40;;;;;;5114807;28;20391;-71
2022/03/04 05:51:57;;;;;;;6.07;3.70;;;21.80;27.40;;;;;;5114765;28;20447;-71
2022/03/04 05:54:22;;;;;;;7.72;4.13;;;21.70;27.10;;;;;;5114809;28;20402;-71
2022/03/04 05:56:48;;;;;;;7.30;4.50;;;21.70;27.10;;;;;;5114637;28;20404;-71
2022/03/04 05:59:13;;;;;;;7.00;4.20;;;21.80;27.20;;;;;;5113049;28;20381;-71
2022/03/04 06:01:39;;;;;;;6.82;3.95;;;21.60;27.10;;;;;;5113314;28;20399;-71
2022/03/04 06:04:05;;;;;;;7.87;4.50;;;21.70;27.10;;;;;;5112944;28;20434;-71
2022/03/04 06:06:31;;;;;;;7.28;4.40;;;21.70;27.00;;;;;;5113211;28;20917;-71
2022/03/04 06:08:56;;;;;;;5.55;3.95;;;21.70;27.10;;;;;;5112963;28;20874;-70
2022/03/04 06:11:22;;;;;;;5.87;4.33;;;21.70;27.00;;;;;;5114386;28;20384;-70
2022/03/04 06:13:47;;;;;;;6.28;3.92;;;21.60;27.00;;;;;;5114438;28;20380;-70
2022/03/04 06:16:13;;;;;;;5.60;3.87;;;21.60;27.00;;;;;;5113359;28;20914;-70
2022/03/04 06:18:39;;;;;;;6.77;4.17;;;21.60;27.10;;;;;;5114337;28;20750;-70
2022/03/04 06:21:05;;;;;;;6.18;4.20;;;21.60;27.10;;;;;;5113717;28;20865;-70
2022/03/04 06:23:30;;;;;;;5.40;4.00;;;21.60;27.00;;;;;;5114311;28;20388;-71
2022/03/04 06:25:58;;;;;;;5.73;3.97;;;21.60;27.00;;;;;;5114234;28;20473;-71
2022/03/04 06:28:25;;;;;;;5.25;4.22;;;21.60;27.10;;;;;;5114207;28;20379;-70
2022/03/04 06:30:51;;;;;;;4.18;3.75;;;21.60;27.00;;;;;;5113696;28;20422;-70
2022/03/04 06:33:32;;;;;;;5.27;3.70;;;21.60;26.90;;;;;;5113567;28;20413;-70
2022/03/04 06:36:04;;;;;;;6.18;4.38;;;21.60;26.90;;;;;;5114043;28;20381;-70
2022/03/04 06:38:31;;;;;;;5.00;4.07;;;21.60;26.90;;;;;;5113997;28;20861;-70
2022/03/04 06:40:57;;;;;;;5.20;3.87;;;21.60;26.80;;;;;;5113684;28;21023;-70
2022/03/04 06:43:23;;;;;;;6.53;4.32;;;21.50;26.80;;;;;;5113806;28;20475;-70
2022/03/04 06:45:49;;;;;;;5.60;3.97;;;21.50;26.80;;;;;;5113437;28;20775;-71
2022/03/04 06:48:21;;;;;;;4.97;4.15;;;21.50;26.70;;;;;;5113862;28;20376;-70
2022/03/04 06:50:47;;;;;;;4.88;3.97;;;21.50;26.70;;;;;;5113707;28;20757;-70
2022/03/04 06:53:13;;;;;;;5.70;3.97;;;21.50;26.70;;;;;;5113269;28;20852;-70
2022/03/04 06:55:39;;;;;;;5.13;4.23;;;21.50;26.60;;;;;;5113516;28;20403;-70
2022/03/04 06:58:05;;;;;;;4.80;3.88;;;21.50;26.70;;;;;;5113705;28;20835;-70
2022/03/04 07:00:31;;;;;;;5.13;3.90;;;21.50;26.70;;;;;;5113525;28;20380;-70
2022/03/04 07:02:57;;;;;;;5.32;4.07;;;21.50;26.90;;;;;;5113279;28;20394;-70
2022/03/04 07:05:24;;;;;;;5.00;4.37;;;21.50;26.90;;;;;;5113149;28;20396;-70
2022/03/04 07:07:51;;;;;;;4.70;3.90;;;21.40;26.80;;;;;;5113385;28;20412;-70
2022/03/04 07:10:17;;;;;;;4.80;3.72;;;21.40;26.90;;;;;;5112101;28;20399;-70
2022/03/04 07:12:43;;;;;;;5.88;4.05;;;21.40;26.90;;;;;;5111747;28;20473;-70
2022/03/04 07:15:10;;;;;;;5.45;3.97;;;21.40;26.90;;;;;;5111555;28;20376;-70
2022/03/04 07:17:35;;;;;;;5.70;4.00;;;21.40;26.90;;;;;;5113163;28;20476;-70
2022/03/04 07:20:02;;;;;;;5.25;4.18;;;21.40;26.90;;;;;;5111947;28;20386;-70
2022/03/04 07:22:28;;;;;;;4.40;4.00;;;21.40;26.80;;;;;;5113005;28;20821;-70
2022/03/04 07:24:54;;;;;;;4.77;3.77;;;21.50;26.80;;;;;;5112941;28;20460;-70
2022/03/04 07:27:19;;;;;;;5.15;4.25;;;21.40;26.80;;;;;;5111153;28;20416;-70
2022/03/04 07:29:45;;;;;;;5.07;4.10;;;21.40;26.80;;;;;;5111379;28;20388;-71
2022/03/04 07:32:11;;;;;;;5.07;4.30;;;21.40;26.80;;;;;;5112974;28;20869;-70
2022/03/04 07:34:36;;;;;;;5.73;4.60;;;21.40;26.70;;;;;;5112881;28;20381;-70
2022/03/04 07:37:02;;;;;;;5.57;4.40;;;21.50;26.80;;;;;;5112375;28;20402;-70
2022/03/04 07:39:28;;;;;;;5.13;4.25;;;21.50;26.80;;;;;;5111265;28;20385;-71
2022/03/04 07:41:54;;;;;;;4.70;3.80;;;21.50;26.80;;;;;;5111304;28;20399;-70
2022/03/04 07:44:19;;;;;;;5.10;4.05;;;21.50;26.80;;;;;;5111816;28;20479;-70
2022/03/04 07:46:45;;;;;;;5.07;4.17;;;21.50;26.80;;;;;;5110991;28;20788;-70
2022/03/04 07:49:11;;;;;;;5.13;4.20;;;21.50;26.80;;;;;;5110930;28;20420;-70
2022/03/04 07:51:37;;;;;;;5.30;4.05;;;21.50;26.80;;;;;;5112533;28;20585;-70
2022/03/04 07:54:03;;;;;;;4.70;3.83;;;21.50;26.80;;;;;;5112602;28;20412;-71
2022/03/04 07:56:29;;;;;;;5.35;4.20;;;21.50;26.80;;;;;;5112443;28;20396;-71
2022/03/04 07:58:54;;;;;;;5.35;4.43;;;21.50;26.80;;;;;;5112383;28;20376;-71
2022/03/04 08:01:20;;;;;;;5.70;4.40;;;21.50;26.80;;;;;;5111938;28;20469;-70
2022/03/04 08:03:46;;;;;;;5.15;4.43;;;21.60;26.80;;;;;;5112234;28;20377;-70
2022/03/04 08:06:12;;;;;;;4.97;4.47;;;21.60;26.80;;;;;;5110810;28;20896;-70
2022/03/04 08:08:39;;;;;;;5.22;4.50;;;21.60;26.80;;;;;;5110984;28;20395;-70
2022/03/04 08:11:05;;;;;;;5.05;4.07;;;21.60;26.70;;;;;;5111785;28;20380;-70
2022/03/04 08:13:30;;;;;;;4.80;4.30;;;21.60;26.70;;;;;;5112026;28;20433;-70
2022/03/04 08:15:57;;;;;;;4.87;4.17;;;21.70;26.70;;;;;;5110801;28;20395;-70
2022/03/04 08:18:23;;;;;;;4.88;4.18;;;21.80;27.10;;;;;;5105435;28;20484;-70
2022/03/04 08:20:49;;;;;;;5.43;4.40;;;21.80;26.70;;;;;;5110605;28;20385;-70
2022/03/04 08:23:15;;;;;;;5.88;4.78;;;21.80;26.60;;;;;;5110400;28;20395;-70
2022/03/04 08:25:41;;;;;;;6.18;4.88;;;21.90;26.60;;;;;;5110510;28;20423;-70
2022/03/04 08:28:07;;;;;;;5.38;4.35;;;21.90;26.50;;;;;;5111987;28;20471;-70
2022/03/04 08:30:33;;;;;;;5.68;4.65;;;21.90;26.50;;;;;;5112044;28;20388;-70
2022/03/04 08:33:00;;;;;;;5.40;4.45;;;22.00;26.60;;;;;;5110640;28;20380;-70
2022/03/04 08:35:25;;;;;;;5.80;4.82;;;22.00;26.70;;;;;;5110542;28;20442;-70
2022/03/04 08:37:55;;;;;;;5.55;4.88;;;22.00;26.60;;;;;;5110581;28;20902;-70
2022/03/04 08:40:21;;;;;;;5.18;4.43;;;22.10;26.60;;;;;;5110560;28;20439;-70
2022/03/04 08:42:46;;;;;;;5.60;4.50;;;22.10;26.50;;;;;;5111822;28;20886;-70
2022/03/04 08:45:13;;;;;;;5.90;4.72;;;22.20;26.60;;;;;;5110059;28;20889;-71
2022/03/04 08:47:43;;;;;;;5.43;4.60;;;22.20;26.50;;;;;;5110392;28;20495;-71
2022/03/04 08:50:10;;;;;;;6.10;4.90;;;22.20;26.50;;;;;;5110421;28;20380;-71
2022/03/04 08:52:36;;;;;;;6.55;4.63;;;22.20;26.40;;;;;;5110426;28;20901;-70
2022/03/04 08:55:04;;;;;;;5.45;4.63;;;22.20;26.40;;;;;;5112614;28;20381;-70
2022/03/04 08:57:31;;;;;;;5.57;4.97;;;22.30;26.50;;;;;;5114452;28;20396;-71
2022/03/04 08:59:57;;;;;;;6.00;4.93;;;22.30;26.50;;;;;;5114656;28;20982;-71
2022/03/04 09:02:23;;;;;;;5.70;4.72;;;22.30;26.40;;;;;;5115950;28;20396;-70
2022/03/04 09:04:48;;;;;;;5.85;4.97;;;22.40;26.60;;;;;;5114466;28;20376;-71
2022/03/04 09:07:14;;;;;;;5.80;4.80;;;22.30;26.30;;;;;;5115224;28;20541;-70
2022/03/04 09:09:40;;;;;;;5.88;4.95;;;22.30;26.40;;;;;;5115607;28;20388;-70
2022/03/04 09:12:07;;;;;;;5.88;4.78;;;22.30;26.40;;;;;;5114721;28;20889;-71
2022/03/04 09:14:33;;;;;;;5.20;4.70;;;22.40;26.40;;;;;;5114363;28;20391;-70
2022/03/04 09:16:59;;;;;;;5.57;4.97;;;22.40;26.40;;;;;;5115585;28;20380;-70
2022/03/04 09:19:24;;;;;;;5.60;5.00;;;22.40;26.30;;;;;;5113782;28;20894;-70
2022/03/04 09:21:50;;;;;;;5.73;4.70;;;22.40;26.30;;;;;;5113965;28;20463;-70
2022/03/04 09:24:16;;;;;;;6.45;4.78;;;22.50;26.40;;;;;;5114351;28;20388;-71
2022/03/04 09:26:41;;;;;;;6.10;4.82;;;22.50;26.30;;;;;;5114011;28;20969;-71
2022/03/04 09:29:08;;;;;;;6.00;5.23;;;22.50;26.30;;;;;;5115116;28;20479;-71
2022/03/04 09:31:34;;;;;;;5.63;4.88;;;22.40;26.40;;;;;;5113062;28;20736;-71
2022/03/04 09:34:00;;;;;;;6.07;4.63;;;22.40;26.20;;;;;;5113879;28;20440;-70
2022/03/04 09:36:26;;;;;;;6.63;4.90;;;22.40;26.40;;;;;;5113905;28;20418;-71
2022/03/04 09:38:51;;;;;;;5.25;4.68;;;22.40;26.30;;;;;;5113659;28;20380;-70
2022/03/04 09:41:18;;;;;;;6.00;4.87;;;22.40;26.40;;;;;;5114741;28;20888;-71
2022/03/04 09:43:45;;;;;;;5.57;4.90;;;22.40;26.30;;;;;;5113765;28;20383;-70
2022/03/04 09:46:12;;;;;;;5.38;4.80;;;22.50;26.30;;;;;;5113594;28;20444;-70
2022/03/04 09:48:42;;;;;;;5.60;4.80;;;22.50;26.30;;;;;;5113754;28;20388;-71
2022/03/04 09:51:08;;;;;;;5.72;4.90;;;22.50;26.10;;;;;;5114803;28;20399;-70
2022/03/04 09:53:35;;;;;;;5.80;4.88;;;22.50;26.20;;;;;;5114735;28;20495;-71
2022/03/04 09:56:01;;;;;;;6.03;4.70;;;22.50;26.20;;;;;;5114759;28;20905;-71
2022/03/04 09:58:26;;;;;;;5.85;5.03;;;22.50;26.20;;;;;;5114865;28;20471;-70
2022/03/04 10:00:52;;;;;;;5.82;5.00;;;22.50;26.20;;;;;;5113440;28;20385;-71
2022/03/04 10:03:31;;;;;;;5.90;5.20;;;22.50;26.20;;;;;;5114280;28;20395;-70
2022/03/04 10:05:59;;;;;;;6.15;5.00;;;22.50;26.20;;;;;;5113683;28;20422;-70
2022/03/04 10:08:26;;;;;;;6.30;5.40;;;22.50;26.20;;;;;;5113353;28;20416;-70
2022/03/04 10:10:54;;;;;;;5.90;5.05;;;22.40;26.20;;;;;;5113232;28;20400;-70
2022/03/04 10:13:49;;;;;;;5.68;4.95;;;22.50;26.30;;;;;;5112904;28;20474;-70
2022/03/04 10:16:42;;;;;;;6.63;5.22;;;22.50;26.20;;;;;;5113273;28;20445;-70
2022/03/04 10:19:13;;;;;;;6.55;5.20;;;22.50;26.20;;;;;;5112225;28;20403;-70
2022/03/04 10:21:58;;;;;;;6.13;5.30;;;22.50;26.10;;;;;;5113039;28;20400;-70
2022/03/04 10:24:29;;;;;;;6.22;5.25;;;22.50;26.10;;;;;;5114327;28;20773;-70
2022/03/04 10:27:07;;;;;;;6.30;5.20;;;22.60;26.10;;;;;;5112891;28;20453;-71
2022/03/04 10:29:35;;;;;;;6.07;4.95;;;22.60;26.10;;;;;;5114047;28;20380;-71
2022/03/04 10:32:19;;;;;;;5.65;5.05;;;22.50;26.10;;;;;;5112947;28;20396;-71
2022/03/04 10:34:47;;;;;;;5.63;5.00;;;22.60;26.10;;;;;;5114076;28;20412;-71
2022/03/04 10:37:14;;;;;;;6.00;5.15;;;22.60;26.00;;;;;;5113777;28;20380;-71
2022/03/04 10:40:13;;;;;;;6.28;4.95;;;22.60;26.20;;;;;;5112860;28;20385;-70
2022/03/04 10:42:46;;;;;;;6.15;5.45;;;22.60;26.10;;;;;;5129783;27;20399;-70
2022/03/04 10:45:15;;;;;;;6.07;5.23;;;22.60;26.10;;;;;;5112379;28;20745;-70
2022/03/04 10:47:49;;;;;;;6.82;5.47;;;22.60;26.10;;;;;;5113596;28;20905;-70
2022/03/04 10:50:15;;;;;;;5.97;5.00;;;22.60;26.10;;;;;;5112638;28;20711;-71
2022/03/04 10:52:49;;;;;;;6.28;4.93;;;22.60;26.10;;;;;;5113706;28;20383;-70
2022/03/04 10:55:29;;;;;;;6.28;5.00;;;22.60;26.10;;;;;;5113234;28;20475;-71
2022/03/04 10:57:55;;;;;;;6.57;5.35;;;22.60;26.00;;;;;;5113549;28;20391;-71
2022/03/04 11:00:30;;;;;;;6.15;5.30;;;22.60;26.00;;;;;;5113601;28;20388;-70
2022/03/04 11:02:55;;;;;;;5.60;4.72;;;22.60;26.00;;;;;;5111130;28;20388;-70
2022/03/04 11:05:22;;;;;;;6.00;5.22;;;22.70;25.90;;;;;;5111246;28;20734;-70
2022/03/04 11:07:49;;;;;;;6.13;5.10;;;22.70;26.00;;;;;;5113204;28;20731;-70
2022/03/04 11:10:16;;;;;;;6.03;5.07;;;22.70;25.90;;;;;;5112036;28;20385;-70
2022/03/04 11:12:42;;;;;;;5.70;5.10;;;22.70;25.80;;;;;;5111861;28;20397;-70
2022/03/04 11:15:12;;;;;;;5.90;4.90;;;22.70;25.80;;;;;;5111762;28;20395;-70
2022/03/04 11:17:39;;;;;;;5.82;4.93;;;22.70;25.80;;;;;;5110195;28;20384;-70
2022/03/04 11:20:06;;;;;;;5.82;4.90;;;22.70;25.80;;;;;;5111685;28;20941;-70
2022/03/04 11:22:33;;;;;;;5.80;5.20;;;22.70;25.90;;;;;;5111853;28;20392;-71
2022/03/04 11:25:10;;;;;;;8.45;5.38;;;22.70;25.90;;;;;;5112888;28;20822;-72
2022/03/04 11:27:46;;;;;;;6.18;4.93;;;22.60;26.00;;;;;;5111442;28;20978;-71
2022/03/04 11:30:32;;;;;;;6.72;5.47;;;22.70;26.30;;;;;;5113110;28;20384;-70
2022/03/04 11:33:03;;;;;;;7.97;5.32;;;22.60;26.40;;;;;;5112956;28;20430;-70
2022/03/04 11:35:57;;;;;;;7.50;5.68;;;22.60;26.30;;;;;;5112504;28;20385;-70
2022/03/04 11:38:48;;;;;;;7.53;5.57;;;22.60;25.90;;;;;;5112776;28;20731;-71
2022/03/04 11:41:23;;;;;;;7.00;5.10;;;22.60;25.90;;;;;;5111302;28;20498;-70
2022/03/04 11:43:58;;;;;;;6.32;5.13;;;22.60;25.90;;;;;;5112733;28;20391;-71
2022/03/04 11:46:29;;;;;;;6.70;5.00;;;22.60;25.80;;;;;;5111224;28;20422;-71
2022/03/04 11:49:36;;;;;;;7.10;4.80;;;22.70;25.80;;;;;;5128648;27;20889;-71
2022/03/04 11:52:10;;;;;;;8.60;5.30;;;22.70;25.80;;;;;;5111154;28;20399;-71
2022/03/04 11:54:38;;;;;;;8.18;5.40;;;22.70;25.70;;;;;;5112465;28;20376;-70
2022/03/04 11:57:20;;;;;;;9.57;5.28;;;22.80;25.70;;;;;;5111019;28;20434;-70
2022/03/04 11:59:58;;;;;;;6.90;4.97;;;22.80;25.60;;;;;;5112369;28;20459;-71
2022/03/04 12:02:36;;;;;;;6.50;4.20;;;22.80;25.60;;;;;;5111012;28;20904;-71
2022/03/04 12:05:14;;;;;;;6.63;4.30;;;23.30;27.60;;;;;;5112190;28;20865;-69
2022/03/04 12:07:42;;;;;;;5.55;4.13;;;24.30;26.00;;;;;;5111766;28;20400;-69
2022/03/04 12:10:09;;;;;;;5.35;3.90;;;24.80;25.70;;;;;;5110938;28;20376;-70
2022/03/04 12:12:34;;;;;;;5.57;4.30;;;25.20;25.50;;;;;;5112282;28;20388;-70
2022/03/04 12:15:18;;;;;;;5.03;3.50;;;25.40;25.40;;;;;;5111202;28;20377;-68
2022/03/04 12:18:03;;;;;;;5.47;3.70;;;25.60;25.30;;;;;;5111739;28;20465;-70
2022/03/04 12:20:32;;;;;;;9.52;3.85;;;25.80;25.40;;;;;;5112089;28;20482;-71
2022/03/04 12:22:59;;;;;;;8.10;3.88;;;25.90;25.30;;;;;;5111880;28;20393;-70
2022/03/04 12:26:00;;;;;;;6.37;3.80;;;26.00;25.40;;;;;;5111333;28;20407;-70
2022/03/04 12:28:39;;;;;;;8.23;3.70;;;26.10;26.30;;;;;;5069087;28;20470;-70
2022/03/04 12:31:05;;;;;;;9.52;4.00;;;26.20;26.20;;;;;;5107189;28;20385;-69
2022/03/04 12:33:54;;;;;;;7.80;3.40;;;26.30;26.00;;;;;;5110279;28;20538;-69
2022/03/04 12:36:21;;;;;;;4.70;3.30;;;26.20;25.90;;;;;;5110622;28;20758;-69
2022/03/04 12:38:50;;;;;;;7.43;4.07;;;26.20;26.20;;;;;;5111629;28;20402;-69
2022/03/04 12:41:18;;;;;;;8.00;3.58;;;26.30;26.10;;;;;;5110142;28;20433;-69
2022/03/04 12:43:48;;;;;;;8.82;3.42;;;26.60;26.50;;;;;;5111331;28;20442;-71
2022/03/04 12:46:15;;;;;;;8.73;3.85;;;26.30;26.20;;;;;;5110180;28;20425;-69
2022/03/04 12:48:40;;;;;;;7.50;3.20;;;26.20;26.20;;;;;;5127716;28;20380;-70
2022/03/04 12:51:20;;;;;;;11.17;3.60;;;26.30;26.60;;;;;;5110578;28;20385;-70